Time;durP1;ratioP1;P1;durP2;ratioP2;P2;SDS_P1;SDS_P2;PMS_P1;PMS_P2;Temp;Humidity;BMP_temperature;BMP_pressure;BME280_temperature;BME280_humidity;BME280_pressure;Samples;Min_cycle;Max_cycle;Signal;HPM_P1;HPM_P2
2023/08/28 00:01:28;;;;;;;;;;;29.80;62.60;;;;;;5064873;28;42829;-85
2023/08/28 00:03:53;;;;;;;;;;;29.80;62.70;;;;;;5063382;28;44195;-85
2023/08/28 00:06:19;;;;;;;;;;;29.90;62.80;;;;;;5064432;28;42881;-86
2023/08/28 00:08:44;;;;;;;;;;;29.80;64.40;;;;;;5065190;28;43563;-85
2023/08/28 00:11:10;;;;;;;;;;;29.90;63.30;;;;;;5063886;28;42867;-85
2023/08/28 00:13:35;;;;;;;;;;;29.80;63.30;;;;;;5064096;28;42951;-85
2023/08/28 00:16:02;;;;;;;;;;;29.80;63.70;;;;;;5066202;28;43288;-86
2023/08/28 00:18:27;;;;;;;;;;;29.80;63.60;;;;;;5066714;28;44988;-85
2023/08/28 00:20:54;;;;;;;;;;;29.80;64.40;;;;;;5068497;28;42953;-86
2023/08/28 00:23:20;;;;;;;;;;;29.80;63.70;;;;;;5063781;28;42901;-87
2023/08/28 00:25:45;;;;;;;;;;;29.80;63.70;;;;;;5061880;28;42959;-85
2023/08/28 00:28:11;;;;;;;;;;;29.70;63.60;;;;;;5046159;28;44331;-86
2023/08/28 00:30:36;;;;;;;;;;;29.70;63.70;;;;;;5045508;28;43066;-86
2023/08/28 00:33:02;;;;;;;;;;;29.70;63.80;;;;;;5060727;28;43559;-85
2023/08/28 00:35:27;;;;;;;;;;;29.70;64.00;;;;;;5066963;28;42968;-86
2023/08/28 00:37:53;;;;;;;;;;;29.70;64.90;;;;;;5065646;28;43048;-85
2023/08/28 00:40:18;;;;;;;;;;;29.40;65.00;;;;;;5065940;28;42856;-86
2023/08/28 00:42:44;;;;;;;;;;;29.40;65.10;;;;;;5066883;28;43036;-86
2023/08/28 00:45:09;;;;;;;;;;;29.60;65.10;;;;;;5067354;28;43625;-86
2023/08/28 00:47:35;;;;;;;;;;;29.50;65.40;;;;;;5066071;28;45457;-86
2023/08/28 00:50:02;;;;;;;;;;;29.50;65.90;;;;;;5066990;28;42838;-85
2023/08/28 00:52:27;;;;;;;;;;;29.60;66.60;;;;;;5068350;28;44248;-85
2023/08/28 00:54:53;;;;;;;;;;;29.70;67.10;;;;;;5068673;28;42870;-85
2023/08/28 00:57:19;;;;;;;;;;;30.30;67.80;;;;;;5068705;28;42939;-86
2023/08/28 00:59:44;;;;;;;;;;;29.50;66.60;;;;;;5070678;28;43023;-85
2023/08/28 01:02:10;;;;;;;;;;;29.50;66.90;;;;;;5070908;28;43567;-85
2023/08/28 01:04:35;;;;;;;;;;;29.40;66.80;;;;;;5070668;28;42801;-85
2023/08/28 01:07:05;;;;;;;;;;;29.30;66.90;;;;;;5068587;28;42839;-85
2023/08/28 01:10:00;;;;;;;;;;;29.30;67.50;;;;;;5068746;28;43356;-86
2023/08/28 01:12:45;;;;;;;;;;;29.60;64.90;;;;;;5060638;28;44547;-85
2023/08/28 01:15:17;;;;;;;;;;;29.50;65.00;;;;;;5051070;28;43132;-85
2023/08/28 01:17:44;;;;;;;;;;;29.30;64.90;;;;;;5046595;28;43346;-86
2023/08/28 01:20:15;;;;;;;;;;;29.50;67.70;;;;;;5046557;28;42891;-86
2023/08/28 01:22:40;;;;;;;;;;;29.30;67.50;;;;;;5046467;28;43026;-86
2023/08/28 01:25:10;;;;;;;;;;;29.10;67.60;;;;;;5046207;28;42929;-87
2023/08/28 01:27:39;;;;;;;;;;;29.10;66.00;;;;;;5046623;28;43002;-85
2023/08/28 01:30:14;;;;;;;;;;;29.10;65.60;;;;;;5046229;28;43046;-86
2023/08/28 01:32:41;;;;;;;;;;;29.20;65.60;;;;;;5063256;28;43561;-87
2023/08/28 01:35:10;;;;;;;;;;;29.10;67.80;;;;;;5065925;28;42962;-86
2023/08/28 01:37:54;;;;;;;;;;;29.20;65.90;;;;;;5065128;28;43092;-86
2023/08/28 01:40:23;;;;;;;;;;;29.20;66.00;;;;;;5066919;28;42929;-86
2023/08/28 01:42:49;;;;;;;;;;;29.50;69.20;;;;;;5068916;28;42975;-87
2023/08/28 01:45:15;;;;;;;;;;;29.30;68.80;;;;;;5066775;28;43109;-86
2023/08/28 01:47:40;;;;;;;;;;;29.20;68.50;;;;;;5066667;28;43963;-86
2023/08/28 01:50:07;;;;;;;;;;;29.00;68.70;;;;;;5066951;28;42921;-86
2023/08/28 01:52:33;;;;;;;;;;;29.00;68.40;;;;;;5064993;28;43031;-86
2023/08/28 01:54:58;;;;;;;;;;;29.10;69.00;;;;;;5066345;28;42932;-86
2023/08/28 01:57:24;;;;;;;;;;;28.90;68.30;;;;;;5068003;28;43150;-85
2023/08/28 01:59:49;;;;;;;;;;;29.10;69.80;;;;;;5064462;28;43212;-86
2023/08/28 02:02:15;;;;;;;;;;;29.00;69.50;;;;;;5066531;28;43079;-86
2023/08/28 02:04:40;;;;;;;;;;;28.80;69.40;;;;;;5067634;28;43162;-86
2023/08/28 02:07:06;;;;;;;;;;;28.80;69.30;;;;;;5066563;28;43884;-85
2023/08/28 02:09:32;;;;;;;;;;;28.60;69.80;;;;;;5068208;28;42861;-86
2023/08/28 02:11:58;;;;;;;;;;;28.80;70.00;;;;;;5066274;28;42961;-86
2023/08/28 02:14:23;;;;;;;;;;;28.80;69.10;;;;;;5063707;28;43633;-86
2023/08/28 02:16:49;;;;;;;;;;;28.80;69.20;;;;;;5065175;28;43063;-86
2023/08/28 02:19:14;;;;;;;;;;;29.00;69.60;;;;;;5065783;28;43030;-87
2023/08/28 02:21:40;;;;;;;;;;;28.80;68.70;;;;;;5066243;28;43067;-86
2023/08/28 02:24:05;;;;;;;;;;;28.60;68.60;;;;;;5055554;28;43020;-86
2023/08/28 02:26:32;;;;;;;;;;;28.60;68.70;;;;;;5049968;28;43848;-86
2023/08/28 02:28:57;;;;;;;;;;;28.70;68.90;;;;;;5065119;28;43675;-86
2023/08/28 02:31:25;;;;;;;;;;;28.60;69.80;;;;;;5064343;28;43605;-82
2023/08/28 02:33:51;;;;;;;;;;;28.80;67.00;;;;;;5063470;28;43362;-86
2023/08/28 02:36:16;;;;;;;;;;;28.60;69.10;;;;;;5065779;28;42969;-86
2023/08/28 02:38:42;;;;;;;;;;;28.60;69.70;;;;;;5065497;28;43023;-86
2023/08/28 02:41:07;;;;;;;;;;;28.60;69.10;;;;;;5066628;28;44004;-85
2023/08/28 02:43:33;;;;;;;;;;;28.60;69.60;;;;;;5065329;28;42995;-85
2023/08/28 02:45:59;;;;;;;;;;;28.70;70.00;;;;;;5063387;28;44428;-86
2023/08/28 02:48:24;;;;;;;;;;;28.70;70.10;;;;;;5065009;28;42805;-86
2023/08/28 02:50:50;;;;;;;;;;;28.60;69.60;;;;;;5065755;28;42835;-86
2023/08/28 02:53:16;;;;;;;;;;;28.60;70.50;;;;;;5066147;28;42843;-86
2023/08/28 02:55:41;;;;;;;;;;;28.80;70.50;;;;;;5064627;28;43177;-86
2023/08/28 02:58:07;;;;;;;;;;;28.70;70.60;;;;;;5065552;28;42846;-86
2023/08/28 03:00:34;;;;;;;;;;;28.60;69.70;;;;;;5065845;28;42965;-86
2023/08/28 03:03:00;;;;;;;;;;;28.60;70.20;;;;;;5065929;28;42987;-86
2023/08/28 03:05:26;;;;;;;;;;;28.50;70.40;;;;;;5065806;28;43713;-85
2023/08/28 03:07:52;;;;;;;;;;;28.40;70.60;;;;;;5065223;28;43078;-83
2023/08/28 03:10:17;;;;;;;;;;;28.20;70.80;;;;;;5065499;28;42896;-83
2023/08/28 03:12:43;;;;;;;;;;;28.50;70.90;;;;;;5064278;28;42940;-83
2023/08/28 03:15:08;;;;;;;;;;;28.40;71.00;;;;;;5063067;28;42966;-83
2023/08/28 03:17:34;;;;;;;;;;;28.60;70.60;;;;;;5062873;28;43049;-83
2023/08/28 03:19:59;;;;;;;;;;;28.60;71.20;;;;;;5064238;28;43926;-83
2023/08/28 03:22:25;;;;;;;;;;;28.60;70.90;;;;;;5065066;28;43002;-84
2023/08/28 03:24:52;;;;;;;;;;;28.60;70.80;;;;;;5063992;28;43398;-83
2023/08/28 03:27:18;;;;;;;;;;;28.80;70.40;;;;;;5063410;28;42867;-83
2023/08/28 03:29:44;;;;;;;;;;;28.90;70.70;;;;;;5062432;28;43385;-83
2023/08/28 03:32:09;;;;;;;;;;;28.90;70.40;;;;;;5063506;28;43027;-82
2023/08/28 03:34:35;;;;;;;;;;;29.00;70.00;;;;;;5062059;28;44480;-83
2023/08/28 03:37:00;;;;;;;;;;;29.10;69.50;;;;;;5064250;28;42957;-83
2023/08/28 03:39:26;;;;;;;;;;;29.10;69.70;;;;;;5064394;28;42963;-83
2023/08/28 03:41:51;;;;;;;;;;;29.00;69.70;;;;;;5064601;28;42885;-83
2023/08/28 03:44:17;;;;;;;;;;;29.20;69.90;;;;;;5063882;28;42863;-83
2023/08/28 03:46:42;;;;;;;;;;;29.00;69.70;;;;;;5064325;28;42969;-83
2023/08/28 03:49:08;;;;;;;;;;;29.00;69.80;;;;;;5064407;28;42786;-83
2023/08/28 03:51:33;;;;;;;;;;;29.00;69.80;;;;;;5068485;28;43029;-83
2023/08/28 03:54:00;;;;;;;;;;;29.10;69.90;;;;;;5068000;28;44342;-83
2023/08/28 03:56:26;;;;;;;;;;;29.00;69.70;;;;;;5068508;28;42867;-83
2023/08/28 03:58:51;;;;;;;;;;;29.00;70.00;;;;;;5067110;28;43501;-83
2023/08/28 04:01:17;;;;;;;;;;;29.10;70.10;;;;;;5068551;28;42824;-83
2023/08/28 04:03:42;;;;;;;;;;;29.10;70.10;;;;;;5068276;28;42865;-83
2023/08/28 04:06:08;;;;;;;;;;;29.30;69.70;;;;;;5068730;28;42902;-83
2023/08/28 04:08:34;;;;;;;;;;;29.10;69.50;;;;;;5066440;28;43586;-83
2023/08/28 04:11:00;;;;;;;;;;;28.90;69.50;;;;;;5068453;28;43020;-83
2023/08/28 04:13:25;;;;;;;;;;;29.00;69.80;;;;;;5067297;28;43380;-80
2023/08/28 04:15:51;;;;;;;;;;;29.20;70.40;;;;;;5066259;28;43010;-83
2023/08/28 04:18:17;;;;;;;;;;;29.10;70.00;;;;;;5068069;28;43468;-84
2023/08/28 04:20:42;;;;;;;;;;;29.20;70.00;;;;;;5067815;28;42881;-84
2023/08/28 04:23:08;;;;;;;;;;;29.20;70.10;;;;;;5066792;28;42865;-83
2023/08/28 04:25:33;;;;;;;;;;;29.30;70.40;;;;;;5068079;28;42934;-83
2023/08/28 04:27:59;;;;;;;;;;;29.20;69.50;;;;;;5067678;28;43088;-84
2023/08/28 04:30:25;;;;;;;;;;;29.30;69.50;;;;;;5066080;28;43193;-83
2023/08/28 04:32:50;;;;;;;;;;;29.30;69.90;;;;;;5066012;27;43565;-83
2023/08/28 04:35:16;;;;;;;;;;;29.40;69.90;;;;;;5065736;28;42948;-82
2023/08/28 04:37:41;;;;;;;;;;;29.10;70.00;;;;;;5067100;28;43122;-82
2023/08/28 04:40:07;;;;;;;;;;;29.10;70.00;;;;;;5068545;28;43034;-82
2023/08/28 04:42:32;;;;;;;;;;;29.10;68.90;;;;;;5075068;28;44468;-82
2023/08/28 04:44:58;;;;;;;;;;;29.00;69.70;;;;;;5081616;28;42911;-83
2023/08/28 04:47:24;;;;;;;;;;;29.20;69.60;;;;;;5058195;28;43530;-82
2023/08/28 04:49:49;;;;;;;;;;;29.30;69.80;;;;;;5067820;28;42967;-83
2023/08/28 04:52:15;;;;;;;;;;;29.20;69.80;;;;;;5066094;28;43493;-83
2023/08/28 04:54:40;;;;;;;;;;;29.20;69.60;;;;;;5066718;28;43225;-84
2023/08/28 04:57:05;;;;;;;;;;;29.30;69.60;;;;;;5066020;28;43518;-83
2023/08/28 04:59:31;;;;;;;;;;;29.20;69.90;;;;;;5066173;28;42844;-83
2023/08/28 05:01:57;;;;;;;;;;;29.40;69.50;;;;;;5066840;28;42982;-83
2023/08/28 05:04:22;;;;;;;;;;;29.20;69.50;;;;;;5074111;28;43145;-83
2023/08/28 05:06:48;;;;;;;;;;;29.60;70.10;;;;;;5075058;28;43597;-83
2023/08/28 05:09:14;;;;;;;;;;;29.10;69.60;;;;;;5075239;27;43081;-83
2023/08/28 05:11:40;;;;;;;;;;;29.20;69.40;;;;;;5064956;28;44376;-84
2023/08/28 05:14:05;;;;;;;;;;;29.30;69.40;;;;;;5066324;28;42880;-83
2023/08/28 05:16:31;;;;;;;;;;;29.20;69.10;;;;;;5065708;28;43937;-82
2023/08/28 05:18:57;;;;;;;;;;;29.40;69.50;;;;;;5063853;28;42809;-83
2023/08/28 05:21:22;;;;;;;;;;;29.30;68.90;;;;;;5066183;28;42947;-83
2023/08/28 05:23:48;;;;;;;;;;;29.20;69.60;;;;;;5065717;28;42811;-84
2023/08/28 05:26:13;;;;;;;;;;;29.40;69.80;;;;;;5065723;28;43110;-83
2023/08/28 05:28:40;;;;;;;;;;;29.20;69.90;;;;;;5065421;28;43623;-83
2023/08/28 05:31:05;;;;;;;;;;;29.10;70.00;;;;;;5063880;28;43253;-83
2023/08/28 05:33:31;;;;;;;;;;;29.30;70.00;;;;;;5071238;28;42975;-83
2023/08/28 05:35:56;;;;;;;;;;;29.30;70.30;;;;;;5077556;27;43160;-83
2023/08/28 05:38:22;;;;;;;;;;;29.20;70.40;;;;;;5075933;27;42956;-83
2023/08/28 05:40:47;;;;;;;;;;;29.20;70.70;;;;;;5076720;28;43291;-82
2023/08/28 05:43:14;;;;;;;;;;;29.00;70.70;;;;;;5075767;28;42783;-83
2023/08/28 05:45:39;;;;;;;;;;;29.00;70.80;;;;;;5076565;28;42737;-83
2023/08/28 05:48:05;;;;;;;;;;;29.20;70.90;;;;;;5070092;28;43072;-83
2023/08/28 05:50:30;;;;;;;;;;;29.20;70.20;;;;;;5066555;28;42853;-84
2023/08/28 05:52:56;;;;;;;;;;;29.10;70.80;;;;;;5066604;28;42959;-84
2023/08/28 05:55:22;;;;;;;;;;;29.40;71.10;;;;;;5049611;28;42896;-87
2023/08/28 05:57:47;;;;;;;;;;;29.10;70.70;;;;;;5052599;28;42875;-88
2023/08/28 06:00:14;;;;;;;;;;;29.20;70.00;;;;;;5065486;28;43701;-91
2023/08/28 06:02:39;;;;;;;;;;;29.30;70.30;;;;;;5072009;28;43383;-91
2023/08/28 06:05:06;;;;;;;;;;;29.30;70.60;;;;;;5077047;27;43458;-91
2023/08/28 06:07:31;;;;;;;;;;;29.30;70.70;;;;;;5074042;28;43051;-91
2023/08/28 06:09:57;;;;;;;;;;;29.20;70.40;;;;;;5083412;28;43921;-91
2023/08/28 06:12:22;;;;;;;;;;;29.20;70.40;;;;;;5073038;27;43175;-85
2023/08/28 06:14:48;;;;;;;;;;;29.10;70.80;;;;;;5065263;28;43394;-91
2023/08/28 06:17:14;;;;;;;;;;;29.20;70.70;;;;;;5064910;28;42995;-90
2023/08/28 06:19:39;;;;;;;;;;;29.20;70.60;;;;;;5063288;28;44535;-90
2023/08/28 06:22:05;;;;;;;;;;;29.30;70.50;;;;;;5064806;28;42830;-89
2023/08/28 06:24:31;;;;;;;;;;;29.30;70.50;;;;;;5065923;28;42991;-86
2023/08/28 06:26:57;;;;;;;;;;;29.20;70.90;;;;;;5066500;28;42703;-89
2023/08/28 06:29:22;;;;;;;;;;;29.30;70.20;;;;;;5066019;28;43035;-90
2023/08/28 06:31:48;;;;;;;;;;;29.20;70.00;;;;;;5066457;28;42852;-90
2023/08/28 06:34:14;;;;;;;;;;;29.30;70.00;;;;;;5064510;28;45392;-89
2023/08/28 06:36:40;;;;;;;;;;;29.10;69.80;;;;;;5065844;28;43017;-89
2023/08/28 06:39:07;;;;;;;;;;;29.10;69.80;;;;;;5065929;28;42969;-85
2023/08/28 06:41:32;;;;;;;;;;;29.10;69.70;;;;;;5064374;28;43096;-87
2023/08/28 06:43:58;;;;;;;;;;;29.20;70.10;;;;;;5065844;28;43891;-87
2023/08/28 06:46:23;;;;;;;;;;;29.30;70.10;;;;;;5066084;28;42999;-87
2023/08/28 06:48:51;;;;;;;;;;;29.20;70.10;;;;;;5064924;28;43585;-89
2023/08/28 06:51:17;;;;;;;;;;;29.30;70.20;;;;;;5065587;28;42870;-89
2023/08/28 06:53:43;;;;;;;;;;;29.90;70.40;;;;;;5065664;28;42935;-88
2023/08/28 06:56:08;;;;;;;;;;;29.40;70.90;;;;;;5065365;28;42944;-88
2023/08/28 06:58:34;;;;;;;;;;;29.40;69.80;;;;;;5065681;28;43887;-87
2023/08/28 07:01:00;;;;;;;;;;;29.30;69.60;;;;;;5065802;28;42914;-88
2023/08/28 07:03:25;;;;;;;;;;;29.30;69.70;;;;;;5065257;28;42863;-87
2023/08/28 07:05:51;;;;;;;;;;;29.30;69.70;;;;;;5065169;28;42921;-88
2023/08/28 07:08:16;;;;;;;;;;;29.50;70.60;;;;;;5065333;28;43055;-88
2023/08/28 07:10:42;;;;;;;;;;;29.50;70.50;;;;;;5065347;28;43003;-88
2023/08/28 07:13:08;;;;;;;;;;;29.30;69.80;;;;;;5065278;28;42882;-88
2023/08/28 07:15:33;;;;;;;;;;;29.30;70.60;;;;;;5065673;28;42782;-89
2023/08/28 07:17:59;;;;;;;;;;;29.50;70.80;;;;;;5066027;28;43457;-87
2023/08/28 07:20:25;;;;;;;;;;;29.40;70.90;;;;;;5065548;28;42765;-88
2023/08/28 07:22:53;;;;;;;;;;;29.30;70.00;;;;;;5063516;28;44723;-88
2023/08/28 07:25:21;;;;;;;;;;;29.50;70.20;;;;;;5064845;28;43011;-89
2023/08/28 07:27:47;;;;;;;;;;;29.30;70.00;;;;;;5064984;28;42805;-88
2023/08/28 07:30:13;;;;;;;;;;;29.30;70.10;;;;;;5064826;28;42917;-87
2023/08/28 07:32:39;;;;;;;;;;;29.30;71.20;;;;;;5064770;28;42905;-89
2023/08/28 07:35:05;;;;;;;;;;;29.50;70.90;;;;;;5065093;28;42949;-88
2023/08/28 07:37:33;;;;;;;;;;;29.40;70.10;;;;;;5065724;28;43743;-87
2023/08/28 07:39:58;;;;;;;;;;;29.30;70.70;;;;;;5063567;28;43088;-88
2023/08/28 07:42:24;;;;;;;;;;;29.40;70.10;;;;;;5064741;28;43969;-87
2023/08/28 07:44:50;;;;;;;;;;;30.10;71.50;;;;;;5065095;28;43081;-88
2023/08/28 07:47:16;;;;;;;;;;;29.50;70.30;;;;;;5065276;28;43410;-88
2023/08/28 07:49:42;;;;;;;;;;;29.40;70.20;;;;;;5064996;28;42840;-88
2023/08/28 07:52:08;;;;;;;;;;;29.40;70.20;;;;;;5064751;28;43016;-87
2023/08/28 07:54:33;;;;;;;;;;;29.40;70.30;;;;;;5064642;28;42995;-89
2023/08/28 07:56:59;;;;;;;;;;;29.20;70.10;;;;;;5064585;28;43529;-88
2023/08/28 07:59:24;;;;;;;;;;;29.30;70.20;;;;;;5064759;28;42984;-87
2023/08/28 08:01:50;;;;;;;;;;;29.40;70.20;;;;;;5064577;28;42947;-86
2023/08/28 08:04:16;;;;;;;;;;;29.40;70.20;;;;;;5064943;28;42773;-88
2023/08/28 08:06:41;;;;;;;;;;;29.40;70.70;;;;;;5064915;28;43649;-87
2023/08/28 08:09:07;;;;;;;;;;;29.50;70.20;;;;;;5063998;28;42935;-88
2023/08/28 08:11:32;;;;;;;;;;;29.40;70.00;;;;;;5064322;28;43528;-88
2023/08/28 08:13:58;;;;;;;;;;;29.40;70.20;;;;;;5064819;28;42925;-87
2023/08/28 08:16:24;;;;;;;;;;;29.40;70.30;;;;;;5064598;28;43697;-87
2023/08/28 08:18:49;;;;;;;;;;;29.40;71.40;;;;;;5063473;28;43036;-87
2023/08/28 08:21:15;;;;;;;;;;;29.50;71.60;;;;;;5065944;28;42913;-87
2023/08/28 08:23:41;;;;;;;;;;;29.40;70.50;;;;;;5064831;28;43016;-88
2023/08/28 08:26:07;;;;;;;;;;;29.60;71.40;;;;;;5064503;28;42918;-88
2023/08/28 08:28:32;;;;;;;;;;;29.50;71.00;;;;;;5064850;28;42885;-86
2023/08/28 08:30:58;;;;;;;;;;;29.50;70.40;;;;;;5063150;28;44411;-89
2023/08/28 08:33:23;;;;;;;;;;;29.50;70.90;;;;;;5063101;28;43095;-88
2023/08/28 08:35:49;;;;;;;;;;;29.60;70.70;;;;;;5064215;28;43410;-86
2023/08/28 08:38:14;;;;;;;;;;;29.60;70.00;;;;;;5067060;28;42948;-89
2023/08/28 08:40:40;;;;;;;;;;;29.50;69.80;;;;;;5067788;28;42928;-87
2023/08/28 08:43:06;;;;;;;;;;;29.60;70.50;;;;;;5067825;28;42957;-88
2023/08/28 08:45:34;;;;;;;;;;;29.60;69.70;;;;;;5067701;28;43576;-89
2023/08/28 08:48:00;;;;;;;;;;;29.80;70.30;;;;;;5068209;28;42917;-87
2023/08/28 08:50:27;;;;;;;;;;;29.70;70.20;;;;;;5067201;28;43460;-88
2023/08/28 08:52:55;;;;;;;;;;;29.60;69.30;;;;;;5067775;28;42888;-89
2023/08/28 08:55:30;;;;;;;;;;;29.70;69.80;;;;;;5067767;28;43693;-87
2023/08/28 08:57:59;;;;;;;;;;;29.70;66.70;;;;;;5067674;28;42947;-84
2023/08/28 09:00:25;;;;;;;;;;;28.30;67.70;;;;;;5067438;28;42872;-87
2023/08/28 09:02:52;;;;;;;;;;;29.70;68.70;;;;;;5067545;28;42943;-87
2023/08/28 09:05:19;;;;;;;;;;;29.70;68.10;;;;;;5067167;28;43507;-87
2023/08/28 09:07:45;;;;;;;;;;;29.80;68.60;;;;;;5067360;28;42880;-87
2023/08/28 09:10:12;;;;;;;;;;;29.70;68.70;;;;;;5067544;28;43368;-88
2023/08/28 09:12:38;;;;;;;;;;;29.60;68.10;;;;;;5067134;28;42979;-87
2023/08/28 09:15:04;;;;;;;;;;;29.80;68.70;;;;;;5067158;28;43421;-87
2023/08/28 09:17:30;;;;;;;;;;;29.60;67.10;;;;;;5067828;28;43201;-88
2023/08/28 09:19:55;;;;;;;;;;;29.60;67.00;;;;;;5067509;28;43473;-88
2023/08/28 09:22:25;;;;;;;;;;;29.40;67.10;;;;;;5067459;28;42775;-87
2023/08/28 09:24:51;;;;;;;;;;;29.50;66.60;;;;;;5067111;28;43986;-88
2023/08/28 09:27:18;;;;;;;;;;;29.40;66.20;;;;;;5067213;28;42919;-87
2023/08/28 09:29:43;;;;;;;;;;;29.50;65.20;;;;;;5066889;28;43537;-88
2023/08/28 09:32:09;;;;;;;;;;;29.50;65.70;;;;;;5067878;28;42932;-87
2023/08/28 09:34:36;;;;;;;;;;;29.50;65.00;;;;;;5067041;28;43158;-87
2023/08/28 09:37:01;;;;;;;;;;;29.50;64.70;;;;;;5065381;28;42939;-88
2023/08/28 09:39:27;;;;;;;;;;;29.50;64.90;;;;;;5065863;28;42836;-88
2023/08/28 09:41:52;;;;;;;;;;;29.50;64.70;;;;;;5066707;28;43084;-88
2023/08/28 09:44:19;;;;;;;;;;;29.50;64.40;;;;;;5066760;28;42811;-87
2023/08/28 09:46:45;;;;;;;;;;;29.60;64.40;;;;;;5065109;28;43068;-86
2023/08/28 09:49:13;;;;;;;;;;;29.60;63.90;;;;;;5067049;28;42696;-87
2023/08/28 09:51:40;;;;;;;;;;;29.50;62.90;;;;;;5065273;28;42983;-87
2023/08/28 09:54:06;;;;;;;;;;;29.60;63.00;;;;;;5065699;28;43841;-87
2023/08/28 09:56:31;;;;;;;;;;;29.50;62.20;;;;;;5066331;28;42898;-88
2023/08/28 09:58:57;;;;;;;;;;;;;;;;;;5066866;28;43214;-88
2023/08/28 10:01:24;;;;;;;;;;;29.40;62.50;;;;;;5065439;28;43090;-88
2023/08/28 10:03:50;;;;;;;;;;;29.50;62.40;;;;;;5066229;28;42830;-88
2023/08/28 10:06:16;;;;;;;;;;;29.40;62.40;;;;;;5066305;28;42877;-88
2023/08/28 10:08:42;;;;;;;;;;;29.60;62.40;;;;;;5066192;28;42982;-88
2023/08/28 10:11:11;;;;;;;;;;;29.80;62.90;;;;;;5065343;28;43007;-85
2023/08/28 10:13:37;;;;;;;;;;;29.60;62.10;;;;;;5066633;28;42758;-87
2023/08/28 10:16:13;;;;;;;;;;;29.50;62.50;;;;;;5066611;28;43038;-89
2023/08/28 10:18:48;;;;;;;;;;;29.60;59.90;;;;;;5066192;28;42874;-88
2023/08/28 10:21:16;;;;;;;;;;;29.50;59.50;;;;;;5066423;28;42820;-88
2023/08/28 10:23:43;;;;;;;;;;;29.60;61.30;;;;;;5066243;28;43502;-88
2023/08/28 10:26:09;;;;;;;;;;;29.50;61.20;;;;;;5066146;28;42888;-88
2023/08/28 10:28:35;;;;;;;;;;;29.50;62.10;;;;;;5065913;28;43035;-89
2023/08/28 10:31:03;;;;;;;;;;;29.50;61.40;;;;;;5065427;28;42968;-89
2023/08/28 10:33:29;;;;;;;;;;;29.50;61.90;;;;;;5065763;28;43446;-89
2023/08/28 10:35:54;;;;;;;;;;;29.40;61.90;;;;;;5065827;28;42783;-89
2023/08/28 10:38:20;;;;;;;;;;;29.50;61.20;;;;;;5066256;28;42916;-88
2023/08/28 10:40:50;;;;;;;;;;;29.40;61.20;;;;;;5066178;28;43067;-88
2023/08/28 10:43:17;;;;;;;;;;;30.70;60.40;;;;;;5064801;28;43615;-89
2023/08/28 10:45:43;;;;;;;;;;;29.50;61.40;;;;;;5066210;28;42798;-88
2023/08/28 10:48:09;;;;;;;;;;;29.30;61.30;;;;;;5065824;28;43597;-87
2023/08/28 10:50:35;;;;;;;;;;;29.50;61.60;;;;;;5065818;28;42958;-89
2023/08/28 10:53:01;;;;;;;;;;;29.50;61.80;;;;;;5065708;28;43590;-88
2023/08/28 10:55:27;;;;;;;;;;;29.70;62.00;;;;;;5065932;28;42846;-88
2023/08/28 10:57:52;;;;;;;;;;;29.50;61.80;;;;;;5065228;28;43536;-88
2023/08/28 11:00:18;;;;;;;;;;;29.50;62.70;;;;;;5065034;28;42937;-89
2023/08/28 11:03:03;;;;;;;;;;;29.40;62.10;;;;;;5065202;28;42882;-89
2023/08/28 11:05:29;;;;;;;;;;;29.30;60.00;;;;;;5063982;28;43024;-87
2023/08/28 11:07:55;;;;;;;;;;;29.50;62.70;;;;;;5065286;28;43092;-87
2023/08/28 11:10:21;;;;;;;;;;;29.40;63.00;;;;;;5065487;28;42933;-88
2023/08/28 11:13:13;;;;;;;;;;;29.40;62.60;;;;;;5065841;28;43626;-88
2023/08/28 11:15:39;;;;;;;;;;;29.60;61.10;;;;;;5061705;28;42953;-88
2023/08/28 11:18:39;;;;;;;;;;;29.40;63.20;;;;;;5066918;28;43405;-88
2023/08/28 11:21:49;;;;;;;;;;;29.20;61.10;;;;;;5066174;27;42789;-90
2023/08/28 11:43:45;;;;;;;;;;;;;;;;;;;;;
2023/08/28 11:52:17;;;;;;;;;;;28.90;62.40;;;;;;5003427;28;43190;-88
2023/08/28 11:54:42;;;;;;;;;;;28.90;62.70;;;;;;5002032;28;43592;-87
2023/08/28 11:57:25;;;;;;;;;;;28.90;64.30;;;;;;5002066;28;43048;-89
2023/08/28 12:02:52;;;;;;;;;;;28.90;61.60;;;;;;4998867;28;43164;-90
2023/08/28 12:12:14;;;;;;;;;;;28.90;59.80;;;;;;4889762;29;43019;-89
2023/08/28 12:14:41;;;;;;;;;;;28.80;61.40;;;;;;4892664;29;43096;-88
2023/08/28 12:17:06;;;;;;;;;;;28.90;61.20;;;;;;4908957;29;42974;-88
2023/08/28 12:19:32;;;;;;;;;;;29.00;60.90;;;;;;4908067;29;43109;-88
2023/08/28 12:22:07;;;;;;;;;;;29.10;60.80;;;;;;4892250;29;45200;-88
2023/08/28 12:24:33;;;;;;;;;;;28.90;58.60;;;;;;4908192;29;42972;-88
2023/08/28 12:26:58;;;;;;;;;;;29.00;60.20;;;;;;4969975;28;43343;-88
2023/08/28 12:29:24;;;;;;;;;;;29.10;60.50;;;;;;4986270;28;43071;-87
2023/08/28 12:31:50;;;;;;;;;;;29.00;59.90;;;;;;4968730;28;45393;-88
2023/08/28 12:34:15;;;;;;;;;;;29.30;60.40;;;;;;4987622;28;43041;-88
2023/08/28 12:36:45;;;;;;;;;;;29.20;60.30;;;;;;4991002;28;43583;-88
2023/08/28 12:39:20;;;;;;;;;;;28.90;57.60;;;;;;4976404;28;43000;-89
2023/08/28 12:41:53;;;;;;;;;;;29.20;57.70;;;;;;5009751;28;43075;-89
2023/08/28 12:44:19;;;;;;;;;;;29.00;57.60;;;;;;5055392;28;43140;-89
2023/08/28 12:46:45;;;;;;;;;;;29.20;59.30;;;;;;5054377;28;45352;-89
2023/08/28 12:49:11;;;;;;;;;;;29.10;59.00;;;;;;5057845;28;43063;-90
2023/08/28 12:51:36;;;;;;;;;;;29.30;59.60;;;;;;5062785;28;43702;-90
2023/08/28 12:54:02;;;;;;;;;;;29.10;58.90;;;;;;5077842;27;43159;-90
2023/08/28 12:56:27;;;;;;;;;;;29.10;59.30;;;;;;5077632;28;43820;-88
2023/08/28 12:58:53;;;;;;;;;;;29.10;58.80;;;;;;5065648;27;42893;-89
2023/08/28 13:01:20;;;;;;;;;;;29.20;58.90;;;;;;5056249;28;43008;-90
2023/08/28 13:03:46;;;;;;;;;;;29.20;58.70;;;;;;5056196;28;43019;-90
2023/08/28 13:06:12;;;;;;;;;;;29.10;59.10;;;;;;5056359;28;43279;-89
2023/08/28 13:08:37;;;;;;;;;;;29.20;58.30;;;;;;5056661;28;43009;-89
2023/08/28 13:11:03;;;;;;;;;;;29.40;59.20;;;;;;5057597;28;42963;-90
2023/08/28 13:13:28;;;;;;;;;;;29.20;58.40;;;;;;5078653;27;43068;-83
2023/08/28 13:15:55;;;;;;;;;;;28.90;58.60;;;;;;5076521;27;43371;-82
2023/08/28 13:18:20;;;;;;;;;;;29.40;59.50;;;;;;5076494;28;43222;-88
2023/08/28 13:20:46;;;;;;;;;;;29.60;59.60;;;;;;5081488;28;44479;-88
2023/08/28 13:23:11;;;;;;;;;;;29.30;58.50;;;;;;5068584;27;42926;-87
2023/08/28 13:25:37;;;;;;;;;;;29.20;58.90;;;;;;5066570;28;43327;-88
2023/08/28 13:28:02;;;;;;;;;;;29.30;59.10;;;;;;5066525;28;43217;-88
2023/08/28 13:30:28;;;;;;;;;;;29.30;58.60;;;;;;5072321;28;43449;-87
2023/08/28 13:32:55;;;;;;;;;;;29.40;59.20;;;;;;5076521;28;43111;-88
2023/08/28 13:35:21;;;;;;;;;;;29.40;59.50;;;;;;5068931;28;44561;-88
2023/08/28 13:37:47;;;;;;;;;;;29.40;59.00;;;;;;5067802;28;42957;-88
2023/08/28 13:40:12;;;;;;;;;;;29.50;59.50;;;;;;5075524;28;42877;-89
2023/08/28 13:42:38;;;;;;;;;;;29.40;58.90;;;;;;5073802;28;42994;-88
2023/08/28 13:45:03;;;;;;;;;;;29.30;59.30;;;;;;5073537;28;45435;-88
2023/08/28 13:47:29;;;;;;;;;;;29.10;58.60;;;;;;5077135;28;42988;-88
2023/08/28 13:49:55;;;;;;;;;;;29.00;59.50;;;;;;5075686;28;43299;-87
2023/08/28 13:52:20;;;;;;;;;;;29.10;58.20;;;;;;5075478;27;43084;-88
2023/08/28 13:54:46;;;;;;;;;;;29.00;60.20;;;;;;5065014;27;43471;-89
2023/08/28 13:57:11;;;;;;;;;;;29.00;59.60;;;;;;5064302;28;43038;-86
2023/08/28 13:59:37;;;;;;;;;;;28.90;59.80;;;;;;5081579;28;43495;-87
2023/08/28 14:02:03;;;;;;;;;;;29.00;61.10;;;;;;5066084;28;42985;-87
2023/08/28 14:04:30;;;;;;;;;;;28.90;61.30;;;;;;5064801;28;44502;-90
2023/08/28 14:06:57;;;;;;;;;;;29.20;62.20;;;;;;5064440;28;43148;-87
2023/08/28 14:09:23;;;;;;;;;;;28.90;63.20;;;;;;5066762;28;43417;-88
2023/08/28 14:11:49;;;;;;;;;;;28.90;63.90;;;;;;5065423;28;42964;-87
2023/08/28 14:14:14;;;;;;;;;;;28.80;64.60;;;;;;5066328;28;42941;-87
2023/08/28 14:16:40;;;;;;;;;;;28.80;64.40;;;;;;5066314;28;42943;-88
2023/08/28 14:19:05;;;;;;;;;;;28.70;65.20;;;;;;5066068;28;43324;-82
2023/08/28 14:21:31;;;;;;;;;;;28.80;65.40;;;;;;5066100;28;42909;-82
2023/08/28 14:23:56;;;;;;;;;;;28.60;65.60;;;;;;5066345;28;43260;-83
2023/08/28 14:26:22;;;;;;;;;;;28.60;66.20;;;;;;5066236;28;42987;-83
2023/08/28 14:28:48;;;;;;;;;;;28.40;66.40;;;;;;5065983;28;43615;-82
2023/08/28 14:31:14;;;;;;;;;;;28.40;66.70;;;;;;5065979;28;42930;-83
2023/08/28 14:33:40;;;;;;;;;;;28.30;67.10;;;;;;5065891;28;43213;-90
2023/08/28 14:36:06;;;;;;;;;;;28.40;68.10;;;;;;5060957;28;42971;-89
2023/08/28 14:38:31;;;;;;;;;;;28.30;68.10;;;;;;5065767;28;44083;-88
2023/08/28 14:40:57;;;;;;;;;;;28.30;69.10;;;;;;5065987;28;42951;-91
2023/08/28 14:43:22;;;;;;;;;;;28.40;69.60;;;;;;5065357;28;42952;-87
2023/08/28 14:45:48;;;;;;;;;;;28.30;70.00;;;;;;5065089;28;42909;-89
2023/08/28 14:48:13;;;;;;;;;;;28.50;70.30;;;;;;5065048;28;42885;-91
2023/08/28 14:50:39;;;;;;;;;;;28.40;70.30;;;;;;5065601;28;43012;-90